createdAt,value
2022-11-05T00:03:08.429Z,97
2022-11-05T00:13:08.559Z,98
2022-11-05T00:15:46.677Z,98
2022-11-05T00:23:16.737Z,98
2022-11-05T00:33:17.083Z,98
2022-11-05T00:43:17.686Z,98
2022-11-05T01:03:18.901Z,99
2022-11-05T01:13:19.884Z,99
2022-11-05T01:23:20.740Z,99
2022-11-05T01:43:21.418Z,99
2022-11-05T01:53:22.192Z,99
2022-11-05T02:03:22.857Z,99
2022-11-05T02:23:24.395Z,100
2022-11-05T02:33:24.878Z,100
2022-11-05T02:43:25.655Z,100
2022-11-05T02:53:26.078Z,100
2022-11-05T03:03:26.160Z,100
2022-11-05T03:13:26.801Z,100
2022-11-05T03:23:27.430Z,100
2022-11-05T03:43:28.269Z,99
2022-11-05T04:13:30.072Z,100
2022-11-05T04:33:31.292Z,100
2022-11-05T04:43:31.993Z,100
2022-11-05T04:53:32.210Z,99
2022-11-05T05:13:33.548Z,100
2022-11-05T05:23:33.884Z,99
2022-11-05T05:53:35.114Z,99
2022-11-05T06:03:35.588Z,100
2022-11-05T06:13:36.534Z,100
2022-11-05T06:23:37.377Z,99
2022-11-05T06:33:38.315Z,99
2022-11-05T07:03:40.699Z,99
2022-11-05T07:13:41.652Z,99
2022-11-05T07:23:41.899Z,99
2022-11-05T08:23:46.952Z,94
2022-11-05T08:33:47.697Z,92
2022-11-05T08:43:48.693Z,92
2022-11-05T08:53:48.791Z,92
2022-11-05T09:03:48.937Z,91
2022-11-05T09:13:49.098Z,90
2022-11-05T09:23:49.994Z,88
2022-11-05T09:33:50.866Z,87
2022-11-05T09:43:51.414Z,86
2022-11-05T09:53:52.361Z,85
2022-11-05T10:03:52.542Z,83
2022-11-05T10:13:53.562Z,83
2022-11-05T10:23:54.187Z,81
2022-11-05T10:33:55.202Z,80
2022-11-05T10:43:56.019Z,79
2022-11-05T10:54:01.506Z,77
2022-11-05T11:03:57.301Z,75
2022-11-05T11:13:58.031Z,76
2022-11-05T11:23:58.122Z,76
2022-11-05T11:33:58.209Z,75
2022-11-05T12:03:59.512Z,73
2022-11-05T12:14:00.063Z,72
2022-11-05T12:24:00.847Z,72
2022-11-05T12:34:01.180Z,72
2022-11-05T12:44:02.215Z,74
2022-11-05T12:54:02.657Z,75
2022-11-05T13:04:02.952Z,75
2022-11-05T13:14:03.597Z,75
2022-11-05T13:24:03.729Z,75
2022-11-05T13:34:04.240Z,77
2022-11-05T13:44:05.144Z,77
2022-11-05T13:54:05.675Z,75
2022-11-05T14:04:06.224Z,77
2022-11-05T14:14:06.312Z,77
2022-11-05T14:24:06.540Z,77
2022-11-05T14:34:06.926Z,77
2022-11-05T14:44:07.626Z,76
2022-11-05T14:54:07.845Z,75
2022-11-05T15:04:07.986Z,76
2022-11-05T15:14:08.765Z,76
2022-11-05T15:34:09.969Z,77
2022-11-05T16:14:11.322Z,78
2022-11-05T16:44:13.301Z,79
2022-11-05T17:44:17.984Z,77
2022-11-05T17:54:18.513Z,77
2022-11-05T18:04:18.691Z,77
2022-11-05T18:14:23.814Z,77
2022-11-05T18:24:20.424Z,77
2022-11-05T18:34:21.021Z,77
2022-11-05T18:44:21.620Z,78
2022-11-05T18:54:22.389Z,78
2022-11-05T19:04:22.831Z,78
2022-11-05T19:14:23.355Z,79
2022-11-05T19:24:23.484Z,79
2022-11-05T19:34:24.178Z,80
2022-11-05T19:44:25.206Z,80
2022-11-05T19:54:26.310Z,81
2022-11-05T20:04:26.570Z,81
2022-11-05T20:24:27.353Z,81
2022-11-05T20:34:27.519Z,81
2022-11-05T20:54:29.038Z,81
2022-11-05T21:04:29.749Z,81
2022-11-05T21:14:30.341Z,81
2022-11-05T21:24:31.278Z,81
2022-11-05T21:34:32.010Z,81
2022-11-05T21:44:32.912Z,81
2022-11-05T21:54:33.983Z,81
2022-11-05T22:04:34.836Z,82
2022-11-05T22:14:35.619Z,82
2022-11-05T22:24:36.556Z,82
2022-11-05T22:34:37.071Z,83
2022-11-05T22:44:37.522Z,83
2022-11-05T22:54:39.353Z,84
2022-11-05T23:04:38.011Z,84
2022-11-05T23:24:39.044Z,85
2022-11-05T23:34:39.808Z,85
2022-11-05T23:44:39.870Z,85
2022-11-05T23:54:40.594Z,85
